Flight Track Log - Related Links

Times and Time Zones

All times are in EDT time to prevent confusion due to time zone crossing. See the ASQ5861 flight status page for this flight to view local times or setup timezone preferences in your user account.


Time Position Orientation Groundspeed Altitude Reporting Facility
EDT Latitude Longitude Course Direction KTS MPH feet Rate Location/Type
Mon 04:28:27 PM 44.7242 -89.6803 160° South 229 264 4,500  Level Minneapolis Center
Mon 04:29:29 PM 44.6997 -89.5822 109° East 256 295 6,800 2,274 Climbing Minneapolis Center
Mon 04:30:31 PM 44.6778 -89.4744 106° East 273 314 9,200 1,984 Climbing Minneapolis Center
Mon 04:31:33 PM 44.6531 -89.3542 106° East 302 348 10,900 1,355 Climbing Minneapolis Center
Mon 04:32:00 PM 44.5820 -88.9641 125° Southeast  Level FlightAware Approximate
Mon 04:32:35 PM 44.6253 -89.2164 106° East 352 405 12,000  Level Minneapolis Center
Mon 04:33:37 PM 44.5953 -89.0700 106° East 371 427 13,900 1,548 Climbing Minneapolis Center
Mon 04:34:39 PM 44.5675 -88.9383 106° East 372 428 15,200 1,210 Climbing Minneapolis Center
Mon 04:35:41 PM 44.5017 -88.8211 128° Southeast 393 452 16,400 1,065 Climbing Minneapolis Center
Mon 04:36:43 PM 44.4053 -88.7581 155° Southeast 385 443 17,400 1,113 Climbing Minneapolis Center
Mon 04:37:45 PM 44.2889 -88.6811 155° Southeast 396 456 18,700 1,161 Climbing Minneapolis Center
Mon 04:38:47 PM 44.1853 -88.6158 156° South 405 466 19,800 1,016 Climbing Minneapolis Center
Mon 04:39:49 PM 44.0797 -88.5478 155° Southeast 414 476 20,800 818 Climbing Minneapolis Center
Mon 04:40:15 PM 44.0256 -88.5111 154° Southeast 425 489 21,000 68 Climbing Chicago Center
Mon 04:41:17 PM 43.9119 -88.4383 155° Southeast 445 512 20,900 -1,388 Descending Chicago Center
Mon 04:42:55 PM 43.7408 -88.3275 155° Southeast 448 516 17,300 -2,806 Descending Minneapolis Center
Mon 04:43:21 PM 43.6878 -88.2942 156° South 433 498 15,100 -2,864 Descending Chicago Center
Mon 04:44:23 PM 43.5856 -88.2286 155° Southeast 406 467 13,100 -1,016 Descending Chicago Center
Mon 04:45:25 PM 43.4842 -88.1608 154° Southeast 400 460 13,000 -48 Descending Chicago Center
Mon 04:46:27 PM 43.3836 -88.0800 150° Southeast 412 474 13,000 48 Level Chicago Center
Mon 04:47:29 PM 43.2667 -87.9853 149° Southeast 414 476 13,100  Climbing Chicago Center
Mon 04:48:31 PM 43.1661 -87.9039 149° Southeast 417 480 13,000 -288 Descending Chicago Center
Mon 04:49:34 PM 43.0656 -87.8228 149° Southeast 418 481 12,500 -816 Descending Chicago Center
Mon 04:50:36 PM 42.9700 -87.7478 150° Southeast 402 463 11,300 -823 Descending Chicago Center
Mon 04:51:38 PM 42.8764 -87.6728 150° Southeast 392 451 10,800 -629 Descending Chicago Center
Mon 04:52:40 PM 42.7872 -87.6522 170° South 332 382 10,000 -1,210 Descending Chicago Center
Mon 04:53:42 PM 42.6950 -87.6364 173° South 291 335 8,300 -1,403 Descending Chicago Center
Mon 04:54:44 PM 42.6178 -87.6250 174° South 282 325 7,100 -629 Descending Chicago Center
Mon 04:55:46 PM 42.5431 -87.6139 174° South 272 313 7,000 -48 Descending Chicago Center
Mon 04:56:48 PM 42.4667 -87.6050 175° South 273 314 7,000 48 Level Chicago Center
Mon 04:57:50 PM 42.3897 -87.5944 174° South 276 318 7,100 48 Climbing Chicago Center
Mon 04:58:52 PM 42.3092 -87.5850 175° South 275 316 7,100 -435 Level Chicago Center
Mon 04:59:54 PM 42.2331 -87.5767 175° South 276 318 6,200 -919 Descending Chicago Center
Mon 05:00:56 PM 42.1583 -87.5664 174° South 273 314 5,200 -1,065 Descending Chicago Center
Mon 05:01:58 PM 42.0919 -87.6328 217° Southwest 259 298 4,000 -1,065 Descending Chicago Center
Mon 05:03:00 PM 42.0519 -87.6992 231° Southwest 244 281 3,000 -774 Descending Chicago Center
Mon 05:04:02 PM 42.0233 -87.7581 237° Southwest 214 246 2,400 -528 Descending Chicago Center
Mon 05:05:05 PM 42.0044 -87.8117 245° Southwest 184 212 1,900 -576 Descending Chicago Center
Mon 05:06:07 PM 42.0022 -87.8611 267° West 157 181 1,200 -677 Descending Chicago Center

Login

Don't have an account? Register now (free) for customized features, flight alerts, and more!